createdAt,value
2022-08-23T00:00:41.533Z,100.00
2022-08-23T00:03:21.370Z,100.00
2022-08-23T00:06:01.812Z,100.00
2022-08-23T00:08:48.416Z,100.00
2022-08-23T00:11:35.714Z,100.00
2022-08-23T00:14:19.505Z,100.00
2022-08-23T00:17:00.400Z,100.00
2022-08-23T00:19:55.440Z,100.00
2022-08-23T00:22:37.168Z,100.00
2022-08-23T00:25:17.384Z,100.00
2022-08-23T00:27:56.968Z,100.00
2022-08-23T00:30:38.527Z,100.00
2022-08-23T00:33:17.628Z,100.00
2022-08-23T00:35:59.059Z,100.00
2022-08-23T00:38:40.674Z,100.00
2022-08-23T00:41:20.905Z,100.00
2022-08-23T00:44:21.069Z,100.00
2022-08-23T00:47:18.835Z,100.00
2022-08-23T00:50:23.932Z,100.00
2022-08-23T00:53:08.057Z,100.00
2022-08-23T00:55:51.659Z,100.00
2022-08-23T00:58:32.234Z,100.00
2022-08-23T01:01:11.545Z,100.00
2022-08-23T01:04:03.036Z,100.00
2022-08-23T01:06:50.822Z,100.00
2022-08-23T01:09:45.211Z,100.00
2022-08-23T01:12:33.207Z,100.00
2022-08-23T01:15:17.836Z,100.00
2022-08-23T01:18:02.972Z,100.00
2022-08-23T01:20:48.736Z,100.00
2022-08-23T01:23:36.311Z,100.00
2022-08-23T01:26:21.940Z,100.00
2022-08-23T01:29:06.503Z,100.00
2022-08-23T01:31:47.073Z,100.00
2022-08-23T01:34:28.683Z,100.00
2022-08-23T01:37:09.247Z,100.00
2022-08-23T01:39:49.465Z,100.00
2022-08-23T01:42:31.200Z,100.00
2022-08-23T01:45:12.648Z,100.00
2022-08-23T01:47:54.015Z,100.00
2022-08-23T01:53:20.307Z,100.00
2022-08-23T01:56:02.762Z,100.00
2022-08-23T01:58:44.359Z,100.00
2022-08-23T02:01:27.084Z,100.00
2022-08-23T02:04:08.453Z,100.00
2022-08-23T02:06:47.058Z,100.00
2022-08-23T02:09:31.777Z,100.00
2022-08-23T02:12:14.291Z,100.00
2022-08-23T02:14:56.709Z,100.00
2022-08-23T02:17:49.215Z,100.00
2022-08-23T02:20:46.413Z,100.00
2022-08-23T02:23:26.614Z,100.00
2022-08-23T02:26:06.965Z,100.00
2022-08-23T02:28:47.104Z,100.00
2022-08-23T02:31:27.702Z,100.00
2022-08-23T02:37:11.960Z,100.00
2022-08-23T02:39:52.954Z,100.00
2022-08-23T02:42:34.566Z,100.00
2022-08-23T02:45:14.361Z,100.00
2022-08-23T02:47:59.794Z,100.00
2022-08-23T02:50:49.908Z,100.00
2022-08-23T02:53:43.805Z,100.00
2022-08-23T02:56:24.301Z,100.00
2022-08-23T02:59:04.766Z,100.00
2022-08-23T03:01:46.010Z,100.00
2022-08-23T03:04:34.810Z,100.00
2022-08-23T03:07:23.666Z,100.00
2022-08-23T03:10:04.909Z,100.00
2022-08-23T03:12:49.039Z,100.00
2022-08-23T03:15:28.445Z,100.00
2022-08-23T03:18:12.860Z,100.00
2022-08-23T03:20:52.827Z,100.00
2022-08-23T03:23:36.890Z,100.00
2022-08-23T03:26:17.969Z,100.00
2022-08-23T03:29:00.680Z,100.00
2022-08-23T03:31:47.202Z,100.00
2022-08-23T03:34:46.379Z,100.00
2022-08-23T03:37:25.835Z,100.00
2022-08-23T03:40:07.820Z,100.00
2022-08-23T03:42:48.640Z,100.00
2022-08-23T03:45:43.467Z,100.00
2022-08-23T03:48:24.793Z,100.00
2022-08-23T03:51:07.046Z,100.00
2022-08-23T03:53:49.789Z,100.00
2022-08-23T03:56:31.285Z,100.00
2022-08-23T03:59:34.920Z,100.00
2022-08-23T04:02:16.218Z,100.00
2022-08-23T04:04:57.601Z,100.00
2022-08-23T04:08:10.266Z,100.00
2022-08-23T04:10:53.742Z,100.00
2022-08-23T04:13:56.092Z,100.00
2022-08-23T04:16:37.645Z,100.00
2022-08-23T04:19:17.199Z,100.00
2022-08-23T04:22:14.427Z,100.00
2022-08-23T04:25:33.809Z,100.00
2022-08-23T04:28:16.185Z,100.00
2022-08-23T04:30:55.617Z,100.00
2022-08-23T04:33:40.168Z,100.00
2022-08-23T04:36:23.315Z,100.00
2022-08-23T04:39:10.123Z,100.00
2022-08-23T04:42:15.042Z,100.00
2022-08-23T04:44:57.562Z,100.00
2022-08-23T04:47:40.282Z,100.00
2022-08-23T04:50:22.685Z,100.00
2022-08-23T04:53:26.085Z,100.00
2022-08-23T04:56:25.040Z,100.00
2022-08-23T04:59:05.620Z,100.00
2022-08-23T05:01:47.025Z,100.00
2022-08-23T05:04:27.659Z,100.00
2022-08-23T05:07:07.482Z,100.00
2022-08-23T05:09:46.008Z,100.00
2022-08-23T05:12:27.373Z,100.00
2022-08-23T05:15:08.663Z,100.00
2022-08-23T05:17:53.355Z,100.00
2022-08-23T05:20:35.639Z,100.00
2022-08-23T05:23:18.883Z,100.00
2022-08-23T05:26:06.109Z,100.00
2022-08-23T05:28:50.389Z,100.00
2022-08-23T05:31:31.799Z,100.00
2022-08-23T05:34:13.196Z,100.00
2022-08-23T05:37:00.551Z,100.00
2022-08-23T05:39:46.840Z,100.00
2022-08-23T05:42:27.141Z,100.00
2022-08-23T05:45:12.144Z,100.00
2022-08-23T05:47:52.570Z,100.00
2022-08-23T05:50:42.959Z,100.00
2022-08-23T05:53:24.552Z,100.00
2022-08-23T05:56:14.605Z,100.00
2022-08-23T05:59:16.664Z,100.00
2022-08-23T06:01:56.498Z,100.00
2022-08-23T06:04:38.225Z,100.00
2022-08-23T06:07:17.707Z,100.00
2022-08-23T06:09:57.809Z,100.00
2022-08-23T06:12:37.410Z,100.00
2022-08-23T06:15:18.567Z,100.00
2022-08-23T06:17:58.479Z,100.00
2022-08-23T06:20:39.388Z,100.00
2022-08-23T06:23:20.018Z,100.00
2022-08-23T06:26:00.550Z,100.00
2022-08-23T06:28:51.048Z,100.00
2022-08-23T06:31:46.919Z,100.00
2022-08-23T06:34:32.291Z,100.00
2022-08-23T06:37:40.078Z,100.00
2022-08-23T06:40:35.170Z,100.00
2022-08-23T06:43:34.787Z,100.00
2022-08-23T06:46:36.857Z,100.00
2022-08-23T06:49:17.194Z,100.00
2022-08-23T06:51:59.895Z,100.00
2022-08-23T06:54:51.358Z,100.00
2022-08-23T06:57:56.049Z,100.00
2022-08-23T07:01:44.179Z,100.00
2022-08-23T07:04:33.511Z,100.00
2022-08-23T07:07:24.345Z,100.00
2022-08-23T07:10:16.164Z,100.00
2022-08-23T07:12:58.287Z,100.00
2022-08-23T07:15:39.680Z,100.00
2022-08-23T07:18:20.600Z,100.00
2022-08-23T07:21:03.871Z,100.00
2022-08-23T07:23:46.645Z,100.00
2022-08-23T07:26:29.488Z,100.00
2022-08-23T07:29:13.183Z,100.00
2022-08-23T07:31:56.026Z,100.00
2022-08-23T07:34:36.931Z,100.00
2022-08-23T07:37:17.309Z,100.00
2022-08-23T07:39:58.634Z,100.00
2022-08-23T07:42:40.060Z,100.00
2022-08-23T07:45:22.315Z,100.00
2022-08-23T07:48:07.893Z,100.00
2022-08-23T07:51:04.755Z,100.00
2022-08-23T07:53:52.281Z,100.00
2022-08-23T07:56:32.180Z,100.00
2022-08-23T07:59:23.598Z,100.00
2022-08-23T08:02:36.240Z,100.00
2022-08-23T08:05:21.557Z,100.00
2022-08-23T08:08:00.987Z,100.00
2022-08-23T08:10:41.792Z,100.00
2022-08-23T08:13:21.838Z,100.00
2022-08-23T08:16:01.694Z,100.00
2022-08-23T08:18:44.661Z,100.00
2022-08-23T08:21:48.535Z,100.00
2022-08-23T08:24:57.657Z,100.00
2022-08-23T08:27:38.729Z,100.00
2022-08-23T08:30:39.288Z,100.00
2022-08-23T08:33:21.182Z,100.00
2022-08-23T08:36:05.805Z,100.00
2022-08-23T08:38:48.025Z,100.00
2022-08-23T08:42:04.692Z,100.00
2022-08-23T08:44:52.861Z,100.00
2022-08-23T08:47:43.232Z,100.00
2022-08-23T08:50:26.522Z,100.00
2022-08-23T08:53:26.961Z,100.00
2022-08-23T08:56:32.323Z,100.00
2022-08-23T08:59:46.236Z,100.00
2022-08-23T09:02:32.561Z,100.00
2022-08-23T09:05:17.880Z,100.00
2022-08-23T09:08:17.001Z,100.00
2022-08-23T09:11:12.065Z,100.00
2022-08-23T09:14:24.453Z,100.00
2022-08-23T09:17:06.917Z,100.00
2022-08-23T09:19:51.253Z,100.00
2022-08-23T09:22:36.167Z,100.00
2022-08-23T09:25:24.070Z,97.71
2022-08-23T09:28:15.244Z,100.00
2022-08-23T09:30:56.253Z,100.00
2022-08-23T09:33:41.183Z,93.24
2022-08-23T09:36:26.899Z,91.40
2022-08-23T09:39:31.203Z,90.04
2022-08-23T09:42:29.513Z,97.86
2022-08-23T09:45:26.834Z,74.70
2022-08-23T09:48:38.892Z,68.70
2022-08-23T09:51:26.104Z,70.69
2022-08-23T09:54:08.979Z,74.54
2022-08-23T09:56:54.554Z,75.17
2022-08-23T09:59:40.272Z,60.47
2022-08-23T10:02:29.621Z,64.38
2022-08-23T10:05:19.788Z,62.44
2022-08-23T10:08:02.720Z,65.87
2022-08-23T10:11:42.254Z,66.75
2022-08-23T10:14:25.923Z,65.07
2022-08-23T10:17:15.785Z,58.52
2022-08-23T10:20:02.228Z,60.31
2022-08-23T10:22:46.617Z,57.20
2022-08-23T10:25:41.873Z,56.77
2022-08-23T10:28:53.316Z,60.24
2022-08-23T10:31:42.908Z,61.81
2022-08-23T10:34:29.837Z,62.09
2022-08-23T10:37:23.192Z,55.25
2022-08-23T10:40:16.151Z,53.68
2022-08-23T10:43:07.514Z,54.14
2022-08-23T10:45:50.045Z,52.97
2022-08-23T10:48:48.906Z,52.75
2022-08-23T10:51:43.235Z,50.29
2022-08-23T10:54:35.116Z,51.14
2022-08-23T10:57:30.383Z,55.46
2022-08-23T11:00:14.035Z,53.00
2022-08-23T11:03:00.913Z,46.40
2022-08-23T11:06:27.323Z,50.04
2022-08-23T11:09:11.875Z,46.34
2022-08-23T11:12:11.719Z,44.46
2022-08-23T11:15:11.048Z,49.66
2022-08-23T11:18:02.185Z,46.47
2022-08-23T11:21:03.484Z,46.85
2022-08-23T11:23:53.766Z,50.85
2022-08-23T11:27:06.581Z,49.19
2022-08-23T11:29:51.912Z,51.25
2022-08-23T11:32:54.909Z,50.20
2022-08-23T11:35:43.016Z,50.40
2022-08-23T11:39:01.447Z,51.48
2022-08-23T11:42:04.466Z,46.67
2022-08-23T11:44:50.418Z,53.01
2022-08-23T11:47:41.148Z,58.22
2022-08-23T11:50:27.487Z,50.26
2022-08-23T11:53:20.330Z,48.34
2022-08-23T11:56:17.418Z,48.63
2022-08-23T11:59:08.862Z,49.26
2022-08-23T12:01:49.309Z,51.73
2022-08-23T12:04:34.218Z,46.31
2022-08-23T12:07:13.510Z,44.60
2022-08-23T12:09:56.508Z,45.21
2022-08-23T12:12:41.873Z,45.63
2022-08-23T12:16:00.924Z,45.66
2022-08-23T12:18:47.734Z,48.49
2022-08-23T12:21:34.252Z,47.27
2022-08-23T12:24:18.383Z,45.30
2022-08-23T12:27:11.486Z,44.78
2022-08-23T12:29:58.783Z,45.28
2022-08-23T12:32:42.812Z,46.54
2022-08-23T12:35:33.543Z,51.83
2022-08-23T12:38:21.312Z,46.34
2022-08-23T12:41:14.801Z,43.24
2022-08-23T12:44:03.236Z,54.94
2022-08-23T12:46:46.286Z,45.43
2022-08-23T12:49:30.981Z,43.99
2022-08-23T12:52:13.102Z,43.55
2022-08-23T12:54:57.622Z,44.69
2022-08-23T12:57:38.819Z,47.65
2022-08-23T13:00:23.199Z,42.73
2022-08-23T13:03:08.366Z,42.24
2022-08-23T13:05:52.762Z,44.35
2022-08-23T13:08:35.778Z,42.23
2022-08-23T13:11:19.533Z,42.94
2022-08-23T13:13:58.727Z,49.83
2022-08-23T13:16:44.974Z,45.76
2022-08-23T13:19:27.950Z,43.28
2022-08-23T13:22:12.750Z,47.22
2022-08-23T13:25:29.078Z,45.15
2022-08-23T13:28:26.153Z,42.70
2022-08-23T13:31:08.475Z,43.91
2022-08-23T13:33:54.577Z,43.38
2022-08-23T13:36:36.471Z,44.26
2022-08-23T13:39:16.077Z,42.40
2022-08-23T13:41:56.527Z,43.59
2022-08-23T13:44:37.169Z,45.89
2022-08-23T13:47:23.300Z,43.75
2022-08-23T13:50:11.112Z,46.06
2022-08-23T13:55:54.288Z,46.62
2022-08-23T13:58:59.087Z,47.18
2022-08-23T14:01:38.626Z,47.59
2022-08-23T14:04:18.228Z,47.25
2022-08-23T14:07:01.681Z,49.26
2022-08-23T14:09:41.074Z,48.23
2022-08-23T14:12:25.102Z,48.44
2022-08-23T14:15:10.066Z,48.77
2022-08-23T14:17:52.112Z,52.45
2022-08-23T14:20:56.314Z,49.36
2022-08-23T14:23:36.409Z,55.11
2022-08-23T14:26:26.922Z,53.00
2022-08-23T14:29:06.419Z,55.58
2022-08-23T14:31:46.184Z,55.34
2022-08-23T14:34:26.227Z,53.20
2022-08-23T14:38:02.806Z,54.63
2022-08-23T14:40:10.851Z,56.73
2022-08-23T14:42:50.666Z,58.84
2022-08-23T14:45:30.312Z,57.99
2022-08-23T14:48:12.118Z,55.47
2022-08-23T14:50:52.412Z,58.20
2022-08-23T14:53:35.558Z,55.94
2022-08-23T14:56:38.758Z,56.62
2022-08-23T14:59:20.373Z,55.80
2022-08-23T15:01:59.925Z,58.27
2022-08-23T15:04:42.069Z,60.11
2022-08-23T15:07:22.624Z,61.00
2022-08-23T15:10:05.148Z,57.57
2022-08-23T15:13:13.993Z,60.22
2022-08-23T15:15:49.105Z,57.06
2022-08-23T15:18:28.880Z,57.28
2022-08-23T15:21:10.668Z,63.64
2022-08-23T15:23:50.576Z,62.07
2022-08-23T15:26:31.765Z,65.05
2022-08-23T15:29:11.261Z,61.94
2022-08-23T15:32:03.800Z,60.50
2022-08-23T15:34:46.634Z,63.01
2022-08-23T15:37:27.306Z,61.50
2022-08-23T15:40:09.059Z,61.32
2022-08-23T15:42:48.737Z,64.47
2022-08-23T15:45:49.741Z,60.29
2022-08-23T15:48:31.394Z,60.70
2022-08-23T15:51:12.090Z,62.82
2022-08-23T15:53:52.151Z,63.99
2022-08-23T15:56:33.430Z,65.24
2022-08-23T15:59:17.288Z,61.22
2022-08-23T16:01:57.554Z,62.88
2022-08-23T16:04:48.237Z,68.33
2022-08-23T16:07:28.560Z,65.68
2022-08-23T16:10:12.025Z,63.87
2022-08-23T16:12:51.378Z,63.96
2022-08-23T16:15:31.203Z,65.28
2022-08-23T16:18:13.283Z,60.64
2022-08-23T16:20:54.225Z,63.43
2022-08-23T16:23:33.839Z,67.85
2022-08-23T16:26:17.168Z,62.80
2022-08-23T16:29:01.852Z,65.67
2022-08-23T16:31:43.231Z,67.54
2022-08-23T16:35:18.779Z,62.47
2022-08-23T16:38:02.487Z,63.80
2022-08-23T16:40:41.375Z,65.55
2022-08-23T16:43:22.792Z,65.34
2022-08-23T16:46:02.267Z,63.84
2022-08-23T16:48:44.248Z,65.09
2022-08-23T16:51:23.632Z,63.66
2022-08-23T16:54:03.538Z,68.34
2022-08-23T16:56:45.040Z,67.93
2022-08-23T16:59:29.684Z,69.36
2022-08-23T17:02:11.459Z,65.04
2022-08-23T17:04:52.842Z,66.34
2022-08-23T17:07:33.475Z,66.50
2022-08-23T17:10:14.348Z,68.85
2022-08-23T17:12:58.247Z,66.75
2022-08-23T17:15:38.235Z,68.43
2022-08-23T17:18:17.791Z,65.20
2022-08-23T17:20:57.773Z,63.87
2022-08-23T17:23:40.648Z,63.25
2022-08-23T17:26:20.598Z,66.17
2022-08-23T17:29:00.469Z,64.67
2022-08-23T17:31:40.169Z,69.77
2022-08-23T17:34:19.611Z,67.75
2022-08-23T17:37:21.952Z,63.78
2022-08-23T17:40:01.663Z,68.97
2022-08-23T17:42:41.863Z,69.00
2022-08-23T17:45:22.040Z,71.15
2022-08-23T17:48:02.901Z,70.16
2022-08-23T17:50:43.451Z,71.26
2022-08-23T17:53:23.863Z,73.48
2022-08-23T17:56:05.961Z,74.87
2022-08-23T17:58:49.977Z,73.45
2022-08-23T18:01:30.242Z,74.83
2022-08-23T18:04:09.513Z,83.35
2022-08-23T18:06:49.328Z,84.25
2022-08-23T18:09:29.148Z,79.75
2022-08-23T18:12:08.344Z,82.99
2022-08-23T18:14:51.133Z,84.93
2022-08-23T18:17:34.749Z,84.47
2022-08-23T18:20:14.851Z,84.36
2022-08-23T18:22:57.962Z,88.05
2022-08-23T18:25:39.561Z,94.14
2022-08-23T18:28:21.148Z,92.48
2022-08-23T18:31:03.480Z,97.75
2022-08-23T18:33:46.735Z,97.05
2022-08-23T18:36:28.809Z,99.08
2022-08-23T18:39:09.845Z,97.71
2022-08-23T18:41:49.246Z,96.96
2022-08-23T18:44:34.235Z,100.00
2022-08-23T18:47:13.649Z,99.88
2022-08-23T18:49:53.470Z,100.00
2022-08-23T18:52:33.276Z,100.00
2022-08-23T18:55:12.122Z,100.00
2022-08-23T18:57:49.993Z,100.00
2022-08-23T19:00:32.555Z,100.00
2022-08-23T19:03:14.856Z,100.00
2022-08-23T19:05:58.288Z,100.00
2022-08-23T19:08:38.473Z,100.00
2022-08-23T19:11:19.929Z,100.00
2022-08-23T19:14:00.492Z,100.00
2022-08-23T19:16:45.651Z,100.00
2022-08-23T19:19:29.320Z,100.00
2022-08-23T19:22:10.763Z,100.00
2022-08-23T19:24:50.167Z,100.00
2022-08-23T19:27:29.933Z,100.00
2022-08-23T19:30:12.116Z,100.00
2022-08-23T19:33:05.509Z,100.00
2022-08-23T19:36:02.514Z,100.00
2022-08-23T19:38:42.303Z,100.00
2022-08-23T19:41:20.913Z,100.00
2022-08-23T19:44:00.532Z,100.00
2022-08-23T19:46:42.227Z,100.00
2022-08-23T19:49:22.884Z,100.00
2022-08-23T19:52:02.123Z,100.00
2022-08-23T19:54:42.862Z,100.00
2022-08-23T19:57:21.516Z,100.00
2022-08-23T20:00:00.388Z,100.00
2022-08-23T20:03:21.902Z,100.00
2022-08-23T20:06:02.617Z,100.00
2022-08-23T20:08:44.440Z,100.00
2022-08-23T20:11:27.770Z,100.00
2022-08-23T20:14:25.827Z,100.00
2022-08-23T20:17:08.733Z,100.00
2022-08-23T20:19:49.664Z,100.00
2022-08-23T20:22:48.839Z,100.00
2022-08-23T20:25:30.684Z,100.00
2022-08-23T20:28:11.109Z,100.00
2022-08-23T20:30:53.033Z,100.00
2022-08-23T20:33:32.575Z,100.00
2022-08-23T20:36:12.559Z,100.00
2022-08-23T20:38:54.114Z,100.00
2022-08-23T20:41:36.244Z,100.00
2022-08-23T20:44:16.535Z,100.00
2022-08-23T20:46:59.799Z,100.00
2022-08-23T20:49:42.513Z,100.00
2022-08-23T20:52:24.311Z,100.00
2022-08-23T20:55:09.574Z,100.00
2022-08-23T20:57:50.309Z,100.00
2022-08-23T21:00:29.767Z,100.00
2022-08-23T21:03:09.597Z,100.00
2022-08-23T21:05:49.626Z,100.00
2022-08-23T21:08:53.699Z,100.00
2022-08-23T21:11:34.614Z,100.00
2022-08-23T21:14:17.266Z,100.00
2022-08-23T21:17:13.546Z,100.00
2022-08-23T21:19:54.042Z,100.00
2022-08-23T21:22:34.393Z,100.00
2022-08-23T21:25:17.050Z,100.00
2022-08-23T21:27:58.871Z,100.00
2022-08-23T21:30:41.139Z,100.00
2022-08-23T21:33:21.806Z,100.00
2022-08-23T21:36:05.128Z,100.00
2022-08-23T21:38:45.808Z,100.00
2022-08-23T21:41:31.930Z,100.00
2022-08-23T21:44:12.992Z,100.00
2022-08-23T21:46:54.662Z,100.00
2022-08-23T21:49:36.058Z,100.00
2022-08-23T21:52:15.507Z,100.00
2022-08-23T21:54:55.345Z,100.00
2022-08-23T21:57:35.151Z,100.00
2022-08-23T22:00:17.538Z,100.00
2022-08-23T22:03:00.117Z,100.00
2022-08-23T22:05:44.840Z,100.00
2022-08-23T22:08:25.534Z,100.00
2022-08-23T22:11:07.351Z,100.00
2022-08-23T22:13:48.743Z,100.00
2022-08-23T22:16:28.293Z,100.00
2022-08-23T22:19:08.136Z,100.00
2022-08-23T22:21:51.264Z,100.00
2022-08-23T22:24:31.481Z,100.00
2022-08-23T22:27:13.672Z,100.00
2022-08-23T22:29:55.962Z,100.00
2022-08-23T22:32:37.536Z,100.00
2022-08-23T22:35:18.393Z,100.00
2022-08-23T22:38:13.213Z,100.00
2022-08-23T22:40:53.686Z,100.00
2022-08-23T22:43:34.433Z,100.00
2022-08-23T22:46:17.006Z,100.00
2022-08-23T22:48:58.352Z,100.00
2022-08-23T22:51:37.861Z,100.00
2022-08-23T22:54:19.675Z,100.00
2022-08-23T22:57:00.889Z,100.00
2022-08-23T22:59:39.083Z,100.00
2022-08-23T23:02:20.247Z,100.00
2022-08-23T23:04:59.907Z,100.00
2022-08-23T23:07:57.427Z,100.00
2022-08-23T23:10:37.828Z,100.00
2022-08-23T23:13:19.283Z,100.00
2022-08-23T23:16:00.636Z,100.00
2022-08-23T23:18:43.052Z,100.00
2022-08-23T23:21:22.786Z,100.00
2022-08-23T23:24:02.792Z,100.00
2022-08-23T23:26:44.593Z,100.00
2022-08-23T23:29:26.791Z,100.00
2022-08-23T23:32:07.202Z,100.00
2022-08-23T23:34:47.888Z,100.00
2022-08-23T23:37:28.027Z,100.00
2022-08-23T23:40:09.345Z,100.00
2022-08-23T23:42:48.165Z,100.00
2022-08-23T23:45:29.693Z,100.00
2022-08-23T23:48:09.255Z,100.00
2022-08-23T23:50:48.620Z,100.00
2022-08-23T23:53:27.221Z,100.00
2022-08-23T23:56:13.577Z,100.00
2022-08-23T23:58:54.344Z,100.00
